Time;durP1;ratioP1;P1;durP2;ratioP2;P2;SDS_P1;SDS_P2;PMS_P1;PMS_P2;Temp;Humidity;BMP_temperature;BMP_pressure;BME280_temperature;BME280_humidity;BME280_pressure;Samples;Min_cycle;Max_cycle;Signal;HPM_P1;HPM_P2
2022/03/19 00:00:07;;;;;;;41.73;29.70;;;;;;;1.33;100.00;99302.09;4994688;28;20231;-54
2022/03/19 00:02:36;;;;;;;35.23;29.53;;;;;;;1.49;100.00;99317.88;4977339;28;20224;-48
2022/03/19 00:05:04;;;;;;;40.97;31.27;;;;;;;1.27;100.00;99318.88;5005484;28;20807;-55
2022/03/19 00:07:34;;;;;;;42.57;31.10;;;;;;;1.28;100.00;99313.59;5007528;28;21608;-49
2022/03/19 00:10:04;;;;;;;39.73;31.23;;;;;;;1.34;100.00;99315.09;5003009;28;20290;-51
2022/03/19 00:12:33;;;;;;;41.10;30.67;;;;;;;1.37;100.00;99301.03;4994020;28;20262;-52
2022/03/19 00:15:06;;;;;;;35.70;29.00;;;;;;;1.14;100.00;99297.75;4994461;28;20291;-54
2022/03/19 00:17:35;;;;;;;37.27;30.23;;;;;;;1.19;100.00;99276.63;5006569;28;20414;-49
2022/03/19 00:20:04;;;;;;;39.97;29.67;;;;;;;1.05;100.00;99283.34;4971669;28;21055;-54
2022/03/19 00:22:34;;;;;;;38.87;29.17;;;;;;;0.77;100.00;99283.78;5003643;28;20240;-49
2022/03/19 00:25:03;;;;;;;38.13;29.47;;;;;;;0.82;100.00;99279.19;5005778;28;20204;-55
2022/03/19 00:27:31;;;;;;;40.17;28.97;;;;;;;0.76;100.00;99280.31;4991030;28;20232;-55
2022/03/19 00:29:59;;;;;;;38.77;31.40;;;;;;;0.70;100.00;99291.88;5007381;28;20301;-53
2022/03/19 00:32:27;;;;;;;36.23;29.13;;;;;;;1.00;100.00;99277.50;4991480;28;20251;-51
2022/03/19 00:34:56;;;;;;;42.53;31.90;;;;;;;1.12;100.00;99281.28;4978514;28;20210;-54
2022/03/19 00:37:24;;;;;;;37.23;29.43;;;;;;;1.10;100.00;99273.53;5004784;28;20212;-50
2022/03/19 00:39:54;;;;;;;36.87;28.33;;;;;;;1.21;100.00;99272.19;5004542;28;20212;-54
2022/03/19 00:42:22;;;;;;;38.37;29.63;;;;;;;1.24;100.00;99275.50;4986199;28;20334;-51
2022/03/19 00:44:50;;;;;;;40.87;29.33;;;;;;;1.18;100.00;99267.09;5004991;28;20295;-50
2022/03/19 00:47:18;;;;;;;35.97;29.67;;;;;;;1.26;100.00;99276.28;4986815;28;20286;-53
2022/03/19 00:49:46;;;;;;;40.40;28.70;;;;;;;1.33;100.00;99276.84;4977170;28;20212;-53
2022/03/19 00:52:14;;;;;;;33.73;26.50;;;;;;;1.19;100.00;99267.03;5003567;28;20299;-53
2022/03/19 00:54:42;;;;;;;40.00;28.67;;;;;;;1.28;100.00;99273.56;5006372;28;20748;-54
2022/03/19 00:57:12;;;;;;;41.40;29.90;;;;;;;1.56;100.00;99267.88;4988526;28;20298;-53
2022/03/19 00:59:40;;;;;;;41.87;29.03;;;;;;;1.59;100.00;99261.63;5003098;28;20772;-53
2022/03/19 01:02:08;;;;;;;33.53;27.23;;;;;;;1.64;100.00;99267.47;5004574;28;20852;-55
2022/03/19 01:04:37;;;;;;;38.23;27.73;;;;;;;1.51;100.00;99248.94;4976290;28;20274;-56
2022/03/19 01:07:05;;;;;;;36.60;28.40;;;;;;;1.59;100.00;99252.03;5001695;28;20909;-54
2022/03/19 01:09:33;;;;;;;33.67;27.77;;;;;;;1.65;100.00;99253.50;4987403;28;20327;-54
2022/03/19 01:12:02;;;;;;;37.20;28.80;;;;;;;1.69;100.00;99249.78;5004706;28;20261;-51
2022/03/19 01:14:31;;;;;;;31.87;26.33;;;;;;;1.62;100.00;99244.97;4991341;28;20235;-52
2022/03/19 01:16:59;;;;;;;38.03;28.27;;;;;;;1.60;100.00;99247.66;4998145;28;21165;-50
2022/03/19 01:22:13;;;;;;;40.30;27.03;;;;;;;1.35;100.00;99255.84;4997529;28;20287;-53
2022/03/19 01:24:41;;;;;;;34.50;27.07;;;;;;;1.29;100.00;99254.38;5002603;28;20244;-52
2022/03/19 01:27:09;;;;;;;40.40;28.57;;;;;;;1.29;100.00;99251.75;5002954;28;20295;-51
2022/03/19 01:29:39;;;;;;;36.07;29.13;;;;;;;1.32;100.00;99245.53;4986199;28;20252;-53
2022/03/19 01:32:08;;;;;;;36.67;27.13;;;;;;;1.35;100.00;99248.88;5003022;28;20294;-52
2022/03/19 01:34:37;;;;;;;41.13;29.73;;;;;;;1.38;100.00;99240.88;4993523;28;20327;-52
2022/03/19 01:37:05;;;;;;;38.53;29.60;;;;;;;1.25;100.00;99253.69;4990437;28;20204;-54
2022/03/19 01:39:34;;;;;;;41.63;30.57;;;;;;;1.39;100.00;99245.19;4998550;28;20359;-58
2022/03/19 01:42:02;;;;;;;37.00;28.27;;;;;;;1.35;100.00;99234.94;5001927;28;20208;-51
2022/03/19 01:44:30;;;;;;;40.77;28.87;;;;;;;1.37;100.00;99233.09;5000210;28;20630;-55
2022/03/19 01:47:03;;;;;;;38.80;28.27;;;;;;;1.25;100.00;99226.72;4985559;28;20894;-54
2022/03/19 01:49:32;;;;;;;33.83;28.20;;;;;;;1.30;100.00;99224.72;5001713;28;20263;-55
2022/03/19 01:52:00;;;;;;;34.57;27.37;;;;;;;1.18;100.00;99217.47;4970555;28;20204;-52
2022/03/19 01:54:32;;;;;;;36.67;28.10;;;;;;;1.10;100.00;99229.16;5007600;28;20846;-53
2022/03/19 01:57:02;;;;;;;38.33;29.53;;;;;;;0.95;100.00;99224.66;5008583;28;20224;-57
2022/03/19 01:59:33;;;;;;;35.00;28.07;;;;;;;1.11;100.00;99214.31;5006441;28;20335;-52
2022/03/19 02:02:05;;;;;;;44.33;30.60;;;;;;;1.18;100.00;99217.47;4992945;28;20212;-52
2022/03/19 02:04:35;;;;;;;36.03;26.73;;;;;;;1.05;100.00;99194.59;5000273;28;20235;-54
2022/03/19 02:07:04;;;;;;;34.87;27.77;;;;;;;1.08;100.00;99212.72;4973340;28;20316;-56
2022/03/19 02:09:32;;;;;;;39.43;27.33;;;;;;;0.99;100.00;99216.59;5001595;28;20251;-52
2022/03/19 02:12:00;;;;;;;35.60;28.23;;;;;;;0.87;100.00;99211.97;4997928;28;20236;-52
2022/03/19 02:14:29;;;;;;;38.50;27.67;;;;;;;0.79;100.00;99212.31;5003577;28;20216;-52
2022/03/19 02:16:57;;;;;;;37.60;29.63;;;;;;;0.93;100.00;99209.06;4980994;28;20303;-53
2022/03/19 02:19:27;;;;;;;37.60;28.50;;;;;;;0.82;100.00;99208.75;5002841;28;20341;-53
2022/03/19 02:21:55;;;;;;;38.27;28.43;;;;;;;0.77;100.00;99208.13;4972057;28;21825;-53
2022/03/19 02:27:10;;;;;;;33.30;27.07;;;;;;;0.76;100.00;99202.03;4998124;28;20232;-54
2022/03/19 02:29:38;;;;;;;35.60;29.07;;;;;;;0.67;100.00;99202.47;5004835;28;20315;-54
2022/03/19 02:32:07;;;;;;;43.73;29.57;;;;;;;0.64;100.00;99194.78;4985677;28;20294;-56
2022/03/19 02:34:36;;;;;;;37.47;28.20;;;;;;;0.61;100.00;99187.09;5002062;28;20282;-55
2022/03/19 02:37:04;;;;;;;40.00;27.87;;;;;;;0.50;100.00;99198.84;4971823;28;20338;-55
2022/03/19 02:39:35;;;;;;;38.63;29.20;;;;;;;0.53;100.00;99190.06;5001240;28;20232;-52
2022/03/19 02:42:06;;;;;;;41.87;29.57;;;;;;;0.49;100.00;99181.53;5005619;28;20247;-53
2022/03/19 02:44:35;;;;;;;39.87;30.10;;;;;;;0.51;100.00;99184.06;5008447;28;20201;-57
2022/03/19 02:47:07;;;;;;;41.00;28.37;;;;;;;0.57;100.00;99171.59;4996097;28;20286;-56
2022/03/19 02:49:35;;;;;;;42.97;29.67;;;;;;;0.69;100.00;99166.72;5010695;28;20754;-56
2022/03/19 02:52:04;;;;;;;40.00;29.20;;;;;;;0.65;100.00;99170.38;5005963;28;20898;-53
2022/03/19 02:54:33;;;;;;;39.63;29.00;;;;;;;0.67;100.00;99171.16;4976291;28;20224;-55
2022/03/19 02:57:03;;;;;;;39.53;31.37;;;;;;;0.70;100.00;99174.44;5004270;28;20236;-50
2022/03/19 02:59:33;;;;;;;41.60;30.23;;;;;;;0.76;100.00;99175.06;5008997;28;20291;-56
2022/03/19 03:02:03;;;;;;;36.17;28.23;;;;;;;0.72;100.00;99162.19;4991773;28;20631;-53
2022/03/19 03:04:32;;;;;;;43.20;30.50;;;;;;;0.68;100.00;99165.03;5002416;28;20211;-54
2022/03/19 03:07:02;;;;;;;43.83;29.50;;;;;;;0.79;100.00;99161.91;5004290;28;20232;-52
2022/03/19 03:09:32;;;;;;;41.77;30.60;;;;;;;0.82;100.00;99164.38;4977746;28;20250;-52
2022/03/19 03:12:02;;;;;;;44.67;32.03;;;;;;;0.80;100.00;99161.81;5007659;28;20391;-55
2022/03/19 03:14:30;;;;;;;38.13;30.73;;;;;;;0.70;100.00;99165.78;4999528;28;20216;-53
2022/03/19 03:17:01;;;;;;;38.67;28.40;;;;;;;0.55;100.00;99167.34;5004825;28;20938;-56
2022/03/19 03:19:36;;;;;;;36.30;28.60;;;;;;;0.45;100.00;99161.72;4994037;28;20345;-55
2022/03/19 03:22:05;;;;;;;38.33;28.10;;;;;;;0.25;100.00;99153.06;5005657;28;20227;-53
2022/03/19 03:24:33;;;;;;;38.23;28.70;;;;;;;0.21;100.00;99151.50;4974642;28;20247;-56
2022/03/19 03:27:03;;;;;;;38.43;28.43;;;;;;;0.19;100.00;99148.13;5002958;28;20271;-55
2022/03/19 03:29:31;;;;;;;43.37;30.40;;;;;;;0.41;100.00;99157.56;5003445;28;20228;-54
2022/03/19 03:31:59;;;;;;;42.53;29.97;;;;;;;0.37;100.00;99153.41;5001216;28;20232;-53
2022/03/19 03:34:28;;;;;;;41.23;30.87;;;;;;;0.32;100.00;99155.38;4992186;28;20219;-54
2022/03/19 03:36:56;;;;;;;36.37;26.93;;;;;;;0.19;100.00;99145.53;5004577;28;20228;-54
2022/03/19 03:39:24;;;;;;;39.13;28.47;;;;;;;0.20;100.00;99149.81;5004859;28;20317;-54
2022/03/19 03:41:52;;;;;;;39.37;29.40;;;;;;;0.00;100.00;99142.91;4975060;28;20241;-54
2022/03/19 03:44:22;;;;;;;41.13;28.43;;;;;;;-0.11;100.00;99140.78;5009553;28;20239;-53
2022/03/19 03:46:50;;;;;;;36.03;27.13;;;;;;;-0.15;100.00;99139.22;5005240;28;20247;-54
2022/03/19 03:49:21;;;;;;;42.63;27.90;;;;;;;-0.17;100.00;99141.88;4976714;28;20240;-53
2022/03/19 03:51:49;;;;;;;43.03;29.13;;;;;;;-0.05;100.00;99143.09;4982034;28;20208;-52
2022/03/19 03:54:18;;;;;;;41.67;29.40;;;;;;;0.06;100.00;99139.16;5007289;28;20861;-54
2022/03/19 03:56:46;;;;;;;36.67;27.87;;;;;;;0.11;100.00;99143.25;4971692;28;20212;-58
2022/03/19 03:59:14;;;;;;;42.03;30.20;;;;;;;0.07;100.00;99152.13;5005836;28;20224;-52
2022/03/19 04:01:43;;;;;;;37.63;28.87;;;;;;;0.08;100.00;99150.34;4985627;28;20262;-54
2022/03/19 04:04:12;;;;;;;40.93;29.73;;;;;;;0.11;100.00;99148.47;5008196;28;20250;-56
2022/03/19 04:06:40;;;;;;;39.27;26.70;;;;;;;-0.05;100.00;99148.31;4985919;28;20304;-53
2022/03/19 04:09:09;;;;;;;34.43;27.53;;;;;;;-0.09;100.00;99146.75;5008265;28;20608;-55
2022/03/19 04:11:37;;;;;;;36.60;27.47;;;;;;;-0.24;100.00;99144.81;4974389;28;20671;-52
2022/03/19 04:14:05;;;;;;;40.30;27.87;;;;;;;-0.33;100.00;99138.25;5004311;28;20263;-53
2022/03/19 04:16:33;;;;;;;36.23;27.73;;;;;;;-0.40;100.00;99139.41;5004597;28;20292;-53
2022/03/19 04:19:03;;;;;;;35.00;26.77;;;;;;;-0.41;100.00;99145.53;5004152;28;20723;-52
2022/03/19 04:21:31;;;;;;;35.73;27.77;;;;;;;-0.40;100.00;99144.63;4986349;28;20770;-53
2022/03/19 04:23:59;;;;;;;40.80;30.27;;;;;;;-0.33;100.00;99138.25;5007536;28;20225;-57
2022/03/19 04:26:27;;;;;;;36.00;27.77;;;;;;;-0.36;100.00;99141.00;4993331;28;20236;-53
2022/03/19 04:28:56;;;;;;;38.03;28.53;;;;;;;-0.38;100.00;99135.84;4990480;28;20232;-52
2022/03/19 04:31:24;;;;;;;40.07;28.20;;;;;;;-0.41;100.00;99137.72;5005365;28;20292;-51
2022/03/19 04:33:52;;;;;;;36.53;27.20;;;;;;;-0.52;100.00;99136.44;5006039;28;20236;-55
2022/03/19 04:36:30;;;;;;;38.80;28.13;;;;;;;-0.63;100.00;99142.09;5008322;28;20287;-53
2022/03/19 04:38:58;;;;;;;41.00;29.03;;;;;;;-0.64;100.00;99131.75;4996425;28;20227;-53
2022/03/19 04:41:27;;;;;;;40.90;28.43;;;;;;;-0.77;100.00;99144.44;4965324;28;20312;-53
2022/03/19 04:43:55;;;;;;;37.63;27.80;;;;;;;-0.84;100.00;99145.59;4968292;28;20217;-54
2022/03/19 04:46:23;;;;;;;35.30;26.93;;;;;;;-0.82;100.00;99138.59;5005217;28;20287;-53
2022/03/19 04:48:52;;;;;;;40.10;29.17;;;;;;;-0.64;100.00;99136.97;5001275;28;20235;-57
2022/03/19 04:51:23;;;;;;;39.07;28.40;;;;;;;-0.71;100.00;99140.75;4982163;28;20783;-52
2022/03/19 04:53:51;;;;;;;35.27;26.60;;;;;;;-0.92;100.00;99145.91;4992396;28;20296;-52
2022/03/19 04:56:20;;;;;;;34.87;27.97;;;;;;;-0.95;100.00;99133.03;5006354;28;20361;-52
2022/03/19 04:58:48;;;;;;;40.83;29.03;;;;;;;-0.98;100.00;99139.19;4951333;28;20338;-54
2022/03/19 05:01:17;;;;;;;42.17;27.87;;;;;;;-1.01;100.00;99141.94;4999179;28;20330;-50
2022/03/19 05:03:45;;;;;;;40.73;29.50;;;;;;;-1.03;100.00;99141.16;5001615;28;20219;-51
2022/03/19 05:06:14;;;;;;;40.60;29.23;;;;;;;-1.14;100.00;99141.56;4984605;28;20844;-59
2022/03/19 05:08:43;;;;;;;38.03;28.80;;;;;;;-0.94;100.00;99138.19;5010413;28;20310;-52
2022/03/19 05:11:13;;;;;;;38.20;27.93;;;;;;;-0.88;100.00;99131.88;5002946;28;20487;-54
2022/03/19 05:13:44;;;;;;;36.47;27.40;;;;;;;-0.93;100.00;99134.69;5027709;28;20636;-54
2022/03/19 05:16:13;;;;;;;37.53;29.30;;;;;;;-0.89;100.00;99131.03;4972970;28;20426;-55
2022/03/19 05:18:42;;;;;;;37.20;25.90;;;;;;;-1.07;100.00;99126.56;4999929;28;20239;-57
2022/03/19 05:21:12;;;;;;;37.77;28.23;;;;;;;-1.10;100.00;99129.28;5022276;28;20875;-53
2022/03/19 05:23:45;;;;;;;40.30;27.33;;;;;;;-1.06;100.00;99126.53;5002745;28;20551;-54
2022/03/19 05:26:18;;;;;;;36.70;27.77;;;;;;;-1.03;100.00;99130.72;4998285;28;21248;-55
2022/03/19 05:28:46;;;;;;;39.07;27.63;;;;;;;-1.12;100.00;99125.91;5029340;28;20265;-56
2022/03/19 05:31:33;;;;;;;39.63;28.17;;;;;;;-1.13;100.00;99124.22;5016737;28;20623;-51
2022/03/19 05:36:47;;;;;;;41.00;27.93;;;;;;;-0.91;100.00;99118.97;5028353;28;20862;-53
2022/03/19 05:39:16;;;;;;;44.47;26.93;;;;;;;-0.96;100.00;99118.31;5000215;28;20289;-54
2022/03/19 05:41:44;;;;;;;38.33;27.30;;;;;;;-1.04;100.00;99116.91;5023999;28;20697;-51
2022/03/19 05:44:13;;;;;;;36.53;27.03;;;;;;;-1.12;100.00;99120.72;5000438;28;20422;-53
2022/03/19 05:46:41;;;;;;;37.70;28.90;;;;;;;-1.05;100.00;99124.75;4978913;28;20564;-51
2022/03/19 05:49:09;;;;;;;34.30;26.77;;;;;;;-1.12;100.00;99116.38;5013244;28;20286;-51
2022/03/19 05:51:37;;;;;;;40.10;28.83;;;;;;;-0.93;100.00;99115.59;5024452;28;20302;-57
2022/03/19 05:54:06;;;;;;;38.90;26.33;;;;;;;-0.82;100.00;99113.38;5018018;28;20678;-49
2022/03/19 05:56:35;;;;;;;35.37;27.63;;;;;;;-0.70;100.00;99095.56;5001168;28;20208;-54
2022/03/19 05:59:03;;;;;;;40.90;29.50;;;;;;;-0.55;100.00;99109.69;4999883;28;20927;-53
2022/03/19 06:01:31;;;;;;;44.70;28.63;;;;;;;-0.23;100.00;99110.88;4983035;28;20228;-52
2022/03/19 06:04:00;;;;;;;38.47;28.93;;;;;;;0.77;100.00;99111.56;5017320;28;20291;-50
2022/03/19 06:06:30;;;;;;;45.37;30.77;;;;;;;1.98;100.00;99106.28;5024262;28;20203;-53
2022/03/19 06:08:58;;;;;;;39.67;31.73;;;;;;;3.14;100.00;99098.19;5023685;28;20935;-51
2022/03/19 06:11:26;;;;;;;37.67;29.10;;;;;;;3.50;100.00;99098.72;5002873;28;20203;-51
2022/03/19 06:13:56;;;;;;;34.73;27.27;;;;;;;1.69;100.00;99093.00;5001617;28;20382;-53
2022/03/19 06:16:25;;;;;;;31.23;25.70;;;;;;;1.18;100.00;99090.41;4982408;28;20220;-54
2022/03/19 06:18:53;;;;;;;37.50;27.97;;;;;;;0.98;100.00;99094.84;5021094;28;20406;-49
2022/03/19 06:21:23;;;;;;;35.43;27.50;;;;;;;0.84;100.00;99089.47;5024718;28;20309;-52
2022/03/19 06:23:51;;;;;;;36.60;28.60;;;;;;;0.65;100.00;99090.34;5018567;28;20674;-52
2022/03/19 06:26:20;;;;;;;36.03;27.57;;;;;;;0.80;100.00;99085.31;5024935;28;20214;-57
2022/03/19 06:28:48;;;;;;;33.10;27.27;;;;;;;0.73;100.00;99079.53;4985712;28;20343;-52
2022/03/19 06:31:18;;;;;;;35.37;26.53;;;;;;;0.89;100.00;99084.84;4981127;28;20262;-57
2022/03/19 06:33:46;;;;;;;37.37;27.73;;;;;;;0.98;100.00;99078.34;5019739;28;20569;-50
2022/03/19 06:39:01;;;;;;;37.83;27.77;;;;;;;0.85;100.00;99080.72;5019707;28;20235;-52
2022/03/19 06:41:29;;;;;;;34.17;26.63;;;;;;;1.13;100.00;99074.09;5021643;28;20319;-54
2022/03/19 06:43:57;;;;;;;31.30;26.93;;;;;;;1.10;100.00;99075.09;4981458;28;20211;-56
2022/03/19 06:46:27;;;;;;;34.43;27.23;;;;;;;0.99;100.00;99077.41;5023170;28;20207;-53
2022/03/19 06:48:55;;;;;;;35.50;27.07;;;;;;;1.13;100.00;99071.47;4980320;28;20865;-55
2022/03/19 06:51:23;;;;;;;39.07;28.20;;;;;;;1.24;100.00;99066.56;5022556;28;20291;-52
2022/03/19 06:53:51;;;;;;;37.07;27.43;;;;;;;1.36;100.00;99061.63;5023677;28;20286;-56
2022/03/19 06:56:20;;;;;;;36.70;29.20;;;;;;;1.47;100.00;99058.47;5027733;28;20244;-52
2022/03/19 06:58:48;;;;;;;36.80;27.67;;;;;;;1.65;100.00;99054.88;4990267;28;20227;-57
2022/03/19 07:01:17;;;;;;;33.20;26.20;;;;;;;1.79;100.00;99069.00;5032620;28;20228;-58
2022/03/19 07:03:47;;;;;;;35.60;28.70;;;;;;;1.91;100.00;99064.91;4993919;28;20208;-54
2022/03/19 07:06:17;;;;;;;36.47;30.43;;;;;;;2.10;100.00;99070.81;5021836;28;21043;-56
2022/03/19 07:09:05;;;;;;;39.63;32.17;;;;;;;2.25;100.00;99058.66;5019509;28;20238;-54
2022/03/19 07:11:35;;;;;;;44.47;34.80;;;;;;;2.36;100.00;99058.06;5022203;28;20922;-51
2022/03/19 07:14:08;;;;;;;33.83;25.97;;;;;;;2.50;100.00;99061.66;5007456;28;20220;-56
2022/03/19 07:16:38;;;;;;;32.70;26.90;;;;;;;2.60;100.00;99060.22;5008135;28;20204;-54
2022/03/19 07:19:08;;;;;;;35.63;26.00;;;;;;;2.69;100.00;99056.22;4986395;28;20236;-54
2022/03/19 07:21:36;;;;;;;35.00;26.53;;;;;;;2.93;100.00;99050.53;5018598;28;20330;-52
2022/03/19 07:24:05;;;;;;;31.40;24.53;;;;;;;3.13;100.00;99047.56;5026071;28;20291;-55
2022/03/19 07:26:33;;;;;;;33.77;25.57;;;;;;;3.35;100.00;99034.97;5018991;28;20919;-51
2022/03/19 07:29:02;;;;;;;33.17;26.93;;;;;;;3.50;100.00;99044.53;5002011;28;21318;-49
2022/03/19 07:31:30;;;;;;;28.70;23.90;;;;;;;3.68;100.00;99042.56;5001141;28;20295;-48
2022/03/19 07:33:59;;;;;;;28.90;24.50;;;;;;;3.78;100.00;99032.34;4986897;28;20215;-55
2022/03/19 07:36:28;;;;;;;32.27;23.80;;;;;;;4.10;100.00;99036.53;4995488;28;20200;-54
2022/03/19 07:38:56;;;;;;;27.97;24.10;;;;;;;4.89;100.00;99026.19;5025592;28;20277;-53
2022/03/19 07:44:10;;;;;;;31.90;24.10;;;;;;;7.65;100.00;99018.75;5004268;28;20302;-52
2022/03/19 07:46:41;;;;;;;29.53;24.90;;;;;;;8.37;100.00;99011.34;5005514;28;20210;-51
2022/03/19 07:49:11;;;;;;;34.70;26.17;;;;;;;8.54;100.00;99010.00;4984480;28;20232;-55
2022/03/19 07:51:41;;;;;;;26.27;23.33;;;;;;;7.12;100.00;99009.63;5023637;28;20191;-52
2022/03/19 07:54:09;;;;;;;30.37;22.87;;;;;;;6.88;100.00;98996.50;5023157;28;20685;-52
2022/03/19 07:56:37;;;;;;;30.60;24.90;;;;;;;6.48;100.00;99002.94;5025658;28;20223;-53
2022/03/19 07:59:05;;;;;;;27.27;21.97;;;;;;;6.37;100.00;98995.81;5009411;28;21275;-54
2022/03/19 08:01:33;;;;;;;27.53;22.70;;;;;;;6.37;100.00;98988.78;5008200;28;20269;-52
2022/03/19 08:04:07;;;;;;;31.73;23.57;;;;;;;6.60;100.00;98995.94;4986532;28;20818;-54
2022/03/19 08:06:37;;;;;;;28.73;22.87;;;;;;;6.48;100.00;98988.00;5019783;28;20311;-54
2022/03/19 08:09:08;;;;;;;27.67;22.77;;;;;;;6.69;100.00;98966.25;5022576;28;20340;-55
2022/03/19 08:11:36;;;;;;;25.80;22.73;;;;;;;6.80;100.00;98974.19;5020296;28;20203;-53
2022/03/19 08:14:04;;;;;;;29.43;21.67;;;;;;;6.65;100.00;98980.63;5002475;28;20842;-55
2022/03/19 08:16:33;;;;;;;27.60;20.07;;;;;;;6.72;100.00;98984.47;5005174;28;20346;-54
2022/03/19 08:19:02;;;;;;;23.70;19.07;;;;;;;6.75;100.00;98976.31;4985734;28;20236;-54
2022/03/19 08:21:30;;;;;;;24.40;19.70;;;;;;;6.51;100.00;98973.75;5017432;28;20258;-54
2022/03/19 08:23:58;;;;;;;28.67;20.60;;;;;;;6.80;100.00;98965.44;5021372;28;20277;-53
2022/03/19 08:26:28;;;;;;;22.13;19.03;;;;;;;6.79;99.00;98969.03;5023019;28;20287;-50
2022/03/19 08:28:56;;;;;;;21.23;17.70;;;;;;;6.49;95.87;98975.66;5006909;28;20231;-52
2022/03/19 08:31:24;;;;;;;23.33;17.43;;;;;;;6.45;95.77;98974.19;5021813;28;20243;-50
2022/03/19 08:33:54;;;;;;;22.83;17.00;;;;;;;6.64;89.33;98964.00;5009009;28;20208;-52
2022/03/19 08:36:22;;;;;;;23.17;17.40;;;;;;;6.77;85.79;98968.31;4979732;28;20236;-54
2022/03/19 08:41:37;;;;;;;19.13;16.47;;;;;;;6.74;67.81;98953.56;5020718;28;21139;-57
2022/03/19 08:44:06;;;;;;;20.80;16.57;;;;;;;6.72;68.94;98957.28;5023659;28;20200;-56
2022/03/19 08:46:34;;;;;;;19.37;17.13;;;;;;;7.04;74.35;98954.84;5000607;28;21001;-52
2022/03/19 08:49:03;;;;;;;17.67;15.87;;;;;;;7.23;77.21;98950.78;5011296;28;20236;-52
2022/03/19 08:51:43;;;;;;;20.40;17.10;;;;;;;7.33;75.42;98948.25;4975579;28;20217;-56
2022/03/19 08:54:14;;;;;;;20.47;16.83;;;;;;;7.51;79.00;98946.84;5014522;28;20223;-52
2022/03/19 08:56:45;;;;;;;20.67;18.17;;;;;;;7.46;80.17;98945.50;5017693;28;20208;-55
2022/03/19 08:59:13;;;;;;;21.37;17.33;;;;;;;7.60;80.78;98940.00;5021231;28;20251;-54
2022/03/19 09:01:42;;;;;;;22.43;16.23;;;;;;;7.47;70.71;98941.91;5004952;28;20228;-57
2022/03/19 09:04:11;;;;;;;22.07;16.80;;;;;;;7.36;67.64;98924.28;5025228;28;20211;-54
2022/03/19 09:06:41;;;;;;;19.67;15.53;;;;;;;7.28;70.42;98931.97;4968400;28;20220;-58
2022/03/19 09:09:11;;;;;;;19.93;16.93;;;;;;;7.34;70.35;98939.38;5021978;28;20697;-54
2022/03/19 09:11:39;;;;;;;24.57;17.50;;;;;;;7.23;70.39;98941.06;5020813;28;20941;-56
2022/03/19 09:14:09;;;;;;;19.73;16.43;;;;;;;7.38;68.01;98923.22;5026164;28;20335;-53
2022/03/19 09:16:37;;;;;;;21.47;16.40;;;;;;;7.30;71.48;98917.72;4984127;28;20208;-54
2022/03/19 09:19:05;;;;;;;20.23;17.33;;;;;;;7.37;69.09;98920.69;5023905;28;20267;-56
2022/03/19 09:21:33;;;;;;;18.57;16.57;;;;;;;7.68;68.71;98911.19;4976971;28;20218;-55
2022/03/19 09:24:02;;;;;;;19.87;16.10;;;;;;;7.61;65.41;98911.81;5019225;28;20207;-56
2022/03/19 09:26:30;;;;;;;21.27;17.33;;;;;;;7.74;65.74;98909.84;5021773;28;20283;-55
2022/03/19 09:28:59;;;;;;;20.67;18.00;;;;;;;7.72;62.95;98903.03;5021978;28;20746;-52
2022/03/19 09:31:28;;;;;;;19.70;16.57;;;;;;;7.74;63.89;98901.09;5007095;28;20235;-55
2022/03/19 09:33:56;;;;;;;19.60;17.33;;;;;;;7.84;62.47;98901.22;5025787;28;20573;-53
2022/03/19 09:36:25;;;;;;;20.07;16.50;;;;;;;8.00;64.58;98885.78;5006894;28;20290;-54
2022/03/19 09:38:54;;;;;;;20.63;16.87;;;;;;;8.08;64.38;98882.53;4965571;28;20321;-53
2022/03/19 09:41:22;;;;;;;17.60;15.73;;;;;;;8.34;58.99;98875.09;5018770;28;20287;-52
2022/03/19 09:43:50;;;;;;;20.67;17.03;;;;;;;8.22;56.82;98881.41;5018947;28;20314;-52
2022/03/19 09:46:18;;;;;;;21.13;17.97;;;;;;;8.32;56.98;98873.53;5016070;28;21093;-55
2022/03/19 09:48:48;;;;;;;17.63;15.60;;;;;;;8.35;56.04;98868.84;5000768;28;20313;-52
2022/03/19 09:51:17;;;;;;;21.23;17.23;;;;;;;8.11;56.18;98869.06;5001013;28;21032;-56
2022/03/19 09:53:47;;;;;;;23.80;17.37;;;;;;;8.41;55.18;98862.22;4986276;28;20688;-54
2022/03/19 09:56:31;;;;;;;18.97;16.60;;;;;;;8.54;53.09;98856.78;5023164;28;20204;-52
2022/03/19 09:59:00;;;;;;;19.97;17.27;;;;;;;9.01;55.64;98850.19;5023351;28;20246;-55
2022/03/19 10:01:29;;;;;;;18.07;16.10;;;;;;;8.92;53.28;98852.66;5020981;28;20287;-56
2022/03/19 10:04:03;;;;;;;18.47;15.50;;;;;;;8.73;51.15;98844.63;5004159;28;20242;-50
2022/03/19 10:09:21;;;;;;;20.13;15.70;;;;;;;8.88;51.66;98832.72;4983441;28;20417;-54
2022/03/19 10:11:51;;;;;;;20.20;14.87;;;;;;;8.67;50.81;98825.69;5020182;28;20719;-56
2022/03/19 10:14:24;;;;;;;17.07;15.30;;;;;;;8.60;50.85;98823.69;5019532;28;20307;-56
2022/03/19 10:16:55;;;;;;;18.03;15.07;;;;;;;9.19;49.48;98840.63;5024224;28;20318;-54
2022/03/19 10:19:25;;;;;;;21.30;16.27;;;;;;;8.67;48.40;98822.19;5004611;28;20574;-54
2022/03/19 10:21:55;;;;;;;19.20;15.67;;;;;;;8.32;48.97;98829.47;5026509;28;20214;-56
2022/03/19 10:24:25;;;;;;;16.90;15.00;;;;;;;8.57;49.04;98822.16;5009716;28;20343;-56
2022/03/19 10:26:53;;;;;;;16.43;14.30;;;;;;;8.58;49.63;98818.56;4982377;28;20212;-54
2022/03/19 10:29:29;;;;;;;17.43;15.30;;;;;;;8.05;48.54;98822.06;5022545;28;20224;-57
2022/03/19 10:32:04;;;;;;;19.00;16.20;;;;;;;8.05;50.08;98825.53;5017437;28;20835;-51
2022/03/19 10:34:35;;;;;;;19.23;15.57;;;;;;;8.31;49.63;98808.47;5003550;28;20404;-54
2022/03/19 10:37:04;;;;;;;17.97;15.13;;;;;;;8.25;49.19;98804.56;5018773;28;20281;-52
2022/03/19 10:39:32;;;;;;;15.83;13.43;;;;;;;8.72;49.16;98804.16;5005320;28;20326;-55
2022/03/19 10:42:00;;;;;;;17.37;15.57;;;;;;;8.69;48.53;98797.31;4986053;28;20239;-53
2022/03/19 10:44:29;;;;;;;17.40;15.03;;;;;;;8.94;47.58;98792.56;5017098;28;20320;-51
2022/03/19 10:46:59;;;;;;;17.73;15.90;;;;;;;8.75;48.93;98798.59;5021598;28;20214;-51
2022/03/19 10:49:29;;;;;;;17.67;15.10;;;;;;;8.81;48.75;98798.06;5023942;28;20251;-54
2022/03/19 10:52:02;;;;;;;16.70;15.03;;;;;;;9.00;47.83;98791.16;5007352;28;20207;-50
2022/03/19 10:54:31;;;;;;;20.33;16.57;;;;;;;9.02;47.31;98791.88;5009621;28;20980;-51
2022/03/19 10:57:00;;;;;;;18.43;15.07;;;;;;;8.87;49.04;98782.66;5008095;28;20204;-54
2022/03/19 10:59:31;;;;;;;17.90;15.33;;;;;;;9.14;48.62;98773.28;4999878;28;20223;-55
2022/03/19 11:02:00;;;;;;;17.30;15.50;;;;;;;9.41;49.38;98783.22;5019042;28;20273;-55
2022/03/19 11:04:30;;;;;;;19.57;17.23;;;;;;;9.13;49.00;98777.72;5022533;28;20234;-55
2022/03/19 11:07:01;;;;;;;19.00;16.30;;;;;;;8.85;49.65;98774.84;5004636;28;20677;-56
2022/03/19 11:09:33;;;;;;;17.70;15.73;;;;;;;8.44;50.85;98773.94;5002876;28;23304;-52
2022/03/19 11:12:03;;;;;;;19.33;17.43;;;;;;;8.67;51.71;98767.56;5009070;28;20287;-55
2022/03/19 11:14:32;;;;;;;17.43;15.57;;;;;;;9.27;50.73;98764.09;5010628;28;20211;-50
2022/03/19 11:17:27;;;;;;;19.57;16.90;;;;;;;9.59;50.44;98756.06;5024886;28;20250;-50
2022/03/19 11:19:59;;;;;;;32.63;17.27;;;;;;;9.79;47.91;98752.44;5023325;28;20203;-51
2022/03/19 11:22:30;;;;;;;18.63;16.73;;;;;;;10.63;46.98;98751.88;4976307;28;20222;-53
2022/03/19 11:25:04;;;;;;;21.03;16.80;;;;;;;10.10;46.84;98754.91;5024363;28;20246;-54
2022/03/19 11:27:36;;;;;;;20.70;17.13;;;;;;;9.64;48.41;98749.38;5006539;28;20552;-53
2022/03/19 11:30:06;;;;;;;18.83;16.83;;;;;;;9.74;47.74;98737.94;4985876;28;20695;-54
2022/03/19 11:32:34;;;;;;;18.57;16.67;;;;;;;10.20;47.50;98730.22;5021370;28;20222;-54
2022/03/19 11:35:05;;;;;;;19.87;17.87;;;;;;;9.93;48.43;98729.16;5020537;28;20206;-52
2022/03/19 11:38:03;;;;;;;18.00;16.10;;;;;;;9.42;49.19;98726.69;5012675;28;20269;-56
2022/03/19 11:40:36;;;;;;;18.53;16.07;;;;;;;9.54;48.35;98717.63;4941850;28;20217;-51
2022/03/19 11:43:18;;;;;;;20.03;17.90;;;;;;;9.45;48.96;98712.31;4949909;28;21060;-52
2022/03/19 11:45:53;;;;;;;18.73;16.73;;;;;;;9.76;48.16;98720.13;4929318;28;21347;-53